Time;durP1;ratioP1;P1;durP2;ratioP2;P2;SDS_P1;SDS_P2;PMS_P1;PMS_P2;Temp;Humidity;BMP_temperature;BMP_pressure;BME280_temperature;BME280_humidity;BME280_pressure;Samples;Min_cycle;Max_cycle;Signal;HPM_P1;HPM_P2
2023/06/07 00:00:20;;;;;;;13.07;6.05;;;;;;;;;;4973751;28;20051;-84
2023/06/07 00:02:46;;;;;;;17.60;6.50;;;;;;;;;;4991718;28;20485;-86
2023/06/07 00:05:12;;;;;;;17.08;6.97;;;;;;;;;;4991009;28;20105;-86
2023/06/07 00:07:39;;;;;;;14.25;7.03;;;;;;;;;;4980489;28;20046;-87
2023/06/07 00:10:05;;;;;;;17.20;6.45;;;;;;;;;;4991594;28;20047;-85
2023/06/07 00:12:32;;;;;;;16.83;6.82;;;;;;;;;;4992535;28;20042;-86
2023/06/07 00:15:00;;;;;;;16.25;6.60;;;;;;;;;;4974718;28;20074;-84
2023/06/07 00:17:27;;;;;;;16.67;6.38;;;;;;;;;;4973915;28;20046;-86
2023/06/07 00:19:54;;;;;;;16.50;6.75;;;;;;;;;;4990970;28;20124;-85
2023/06/07 00:22:20;;;;;;;16.15;6.57;;;;;;;;;;4973059;28;20054;-87
2023/06/07 00:24:46;;;;;;;13.45;6.00;;;;;;;;;;4972645;28;20452;-86
2023/06/07 00:27:12;;;;;;;21.35;7.22;;;;;;;;;;4972075;28;20053;-86
2023/06/07 00:29:38;;;;;;;17.73;6.82;;;;;;;;;;4987543;28;20049;-85
2023/06/07 00:32:05;;;;;;;17.27;7.20;;;;;;;;;;4988729;28;20058;-86
2023/06/07 00:34:31;;;;;;;20.10;7.22;;;;;;;;;;4989990;28;20505;-86
2023/06/07 00:36:57;;;;;;;16.83;7.47;;;;;;;;;;4972152;28;20042;-86
2023/06/07 00:39:24;;;;;;;18.27;7.53;;;;;;;;;;4990292;28;20082;-86
2023/06/07 00:41:51;;;;;;;22.98;7.28;;;;;;;;;;4971485;28;20054;-86
2023/06/07 00:44:17;;;;;;;20.23;7.63;;;;;;;;;;4990241;28;20047;-82
2023/06/07 00:46:43;;;;;;;17.23;7.57;;;;;;;;;;4987658;28;20049;-86
2023/06/07 00:49:10;;;;;;;16.02;7.30;;;;;;;;;;4975832;28;20058;-85
2023/06/07 00:51:36;;;;;;;18.27;6.93;;;;;;;;;;4979522;28;20043;-86
2023/06/07 00:54:04;;;;;;;20.08;7.50;;;;;;;;;;4995463;28;20412;-84
2023/06/07 00:56:30;;;;;;;17.40;7.63;;;;;;;;;;4992829;28;20054;-86
2023/06/07 00:58:56;;;;;;;19.23;7.25;;;;;;;;;;4988674;28;20070;-86
2023/06/07 01:01:23;;;;;;;16.77;6.88;;;;;;;;;;4985004;28;20103;-86
2023/06/07 01:03:49;;;;;;;15.65;7.40;;;;;;;;;;4989404;28;20055;-87
2023/06/07 01:06:15;;;;;;;19.90;7.60;;;;;;;;;;4992262;28;20089;-85
2023/06/07 01:08:41;;;;;;;21.90;7.70;;;;;;;;;;4991778;28;20038;-86
2023/06/07 01:11:08;;;;;;;19.10;7.70;;;;;;;;;;4989457;28;20126;-87
2023/06/07 01:13:34;;;;;;;17.75;7.38;;;;;;;;;;4990052;28;20046;-86
2023/06/07 01:16:00;;;;;;;16.25;7.57;;;;;;;;;;4974654;28;20054;-86
2023/06/07 01:18:27;;;;;;;15.70;6.95;;;;;;;;;;4972820;28;20412;-85
2023/06/07 01:20:55;;;;;;;14.20;7.05;;;;;;;;;;4984810;28;20043;-85
2023/06/07 01:23:31;;;;;;;14.07;7.10;;;;;;;;;;4957766;28;20049;-86
2023/06/07 01:25:58;;;;;;;15.63;7.60;;;;;;;;;;4993025;28;20053;-86
2023/06/07 01:28:29;;;;;;;13.88;8.05;;;;;;;;;;4994259;28;20050;-86
2023/06/07 01:30:56;;;;;;;15.60;8.85;;;;;;;;;;4960821;28;20131;-87
2023/06/07 01:33:23;;;;;;;15.93;9.60;;;;;;;;;;4993718;28;20043;-86
2023/06/07 01:35:51;;;;;;;16.50;10.00;;;;;;;;;;4993418;28;20049;-86
2023/06/07 01:38:19;;;;;;;16.33;9.55;;;;;;;;;;4960202;28;20043;-86
2023/06/07 01:40:46;;;;;;;18.02;10.43;;;;;;;;;;4977271;28;20093;-86
2023/06/07 01:43:12;;;;;;;21.33;10.35;;;;;;;;;;4976921;28;20103;-85
2023/06/07 01:45:38;;;;;;;25.33;10.75;;;;;;;;;;4976573;28;20047;-85
2023/06/07 01:48:05;;;;;;;16.63;9.95;;;;;;;;;;4991882;28;20093;-87
2023/06/07 01:50:31;;;;;;;20.38;9.90;;;;;;;;;;4992423;28;20035;-86
2023/06/07 01:52:57;;;;;;;17.35;10.10;;;;;;;;;;4976998;28;20440;-86
2023/06/07 01:55:24;;;;;;;20.00;10.10;;;;;;;;;;4993762;28;20050;-86
2023/06/07 01:58:23;;;;;;;16.88;9.98;;;;;;;;;;4962215;28;20047;-86
2023/06/07 02:01:02;;;;;;;20.15;10.63;;;;;;;;;;4946078;28;20061;-86
2023/06/07 02:03:39;;;;;;;21.23;12.02;;;;;;;;;;4994103;28;20051;-85
2023/06/07 02:06:08;;;;;;;20.15;11.77;;;;;;;;;;4995032;28;20089;-86
2023/06/07 02:08:35;;;;;;;20.63;11.50;;;;;;;;;;4993074;28;20054;-86
2023/06/07 02:11:02;;;;;;;16.55;11.88;;;;;;;;;;4977043;28;20098;-86
2023/06/07 02:13:30;;;;;;;23.13;12.32;;;;;;;;;;4983366;28;20045;-86
2023/06/07 02:15:56;;;;;;;20.88;12.52;;;;;;;;;;4996042;28;20043;-85
2023/06/07 02:18:24;;;;;;;18.55;11.88;;;;;;;;;;4975445;28;20066;-86
2023/06/07 02:20:50;;;;;;;22.75;12.70;;;;;;;;;;4978039;28;20047;-87
2023/06/07 02:23:17;;;;;;;18.02;11.60;;;;;;;;;;4995129;28;20038;-87
2023/06/07 02:25:43;;;;;;;18.33;12.35;;;;;;;;;;4995469;28;20047;-86
2023/06/07 02:28:09;;;;;;;18.55;11.75;;;;;;;;;;4992592;28;20103;-85
2023/06/07 02:30:35;;;;;;;21.17;13.02;;;;;;;;;;4993733;28;20051;-85
2023/06/07 02:33:01;;;;;;;22.15;12.80;;;;;;;;;;4992871;28;20054;-85
2023/06/07 02:35:28;;;;;;;23.63;12.65;;;;;;;;;;4963444;28;20047;-85
2023/06/07 02:37:54;;;;;;;25.08;13.00;;;;;;;;;;4972317;28;20070;-86
2023/06/07 02:40:20;;;;;;;22.55;13.20;;;;;;;;;;4993414;28;20046;-86
2023/06/07 02:42:46;;;;;;;20.10;12.98;;;;;;;;;;4992760;28;20516;-87
2023/06/07 02:45:13;;;;;;;23.77;12.88;;;;;;;;;;4992469;28;20046;-86
2023/06/07 02:47:39;;;;;;;20.25;13.05;;;;;;;;;;4992536;28;20053;-86
2023/06/07 02:50:06;;;;;;;22.42;12.85;;;;;;;;;;4974816;28;20081;-85
2023/06/07 02:52:36;;;;;;;21.50;11.82;;;;;;;;;;4990995;28;20063;-86
2023/06/07 02:55:03;;;;;;;23.30;12.50;;;;;;;;;;4992139;28;20102;-86
2023/06/07 02:57:29;;;;;;;25.70;12.60;;;;;;;;;;4989047;28;20302;-85
2023/06/07 02:59:56;;;;;;;22.90;12.77;;;;;;;;;;4988773;28;20090;-86
2023/06/07 03:02:22;;;;;;;23.60;12.77;;;;;;;;;;4990132;28;20042;-86
2023/06/07 03:04:50;;;;;;;22.38;13.00;;;;;;;;;;4989002;28;20093;-84
2023/06/07 03:07:16;;;;;;;24.08;13.60;;;;;;;;;;4985423;28;20513;-84
2023/06/07 03:09:43;;;;;;;19.92;13.35;;;;;;;;;;4992036;28;20102;-84
2023/06/07 03:12:10;;;;;;;24.65;13.13;;;;;;;;;;4996305;28;20023;-82
2023/06/07 03:14:38;;;;;;;17.38;12.30;;;;;;;;;;4997132;28;20103;-83
2023/06/07 03:17:04;;;;;;;27.02;14.23;;;;;;;;;;4987943;28;20055;-86
2023/06/07 03:19:30;;;;;;;20.55;12.93;;;;;;;;;;4989707;28;20098;-86
2023/06/07 03:21:57;;;;;;;18.95;12.70;;;;;;;;;;4988239;28;20058;-86
2023/06/07 03:24:23;;;;;;;21.90;13.38;;;;;;;;;;4989258;28;20069;-86
2023/06/07 03:26:50;;;;;;;23.48;13.40;;;;;;;;;;4986245;28;20038;-85
2023/06/07 03:29:16;;;;;;;23.52;13.45;;;;;;;;;;4988761;28;20385;-86
2023/06/07 03:31:42;;;;;;;21.63;12.63;;;;;;;;;;4972206;28;20073;-87
2023/06/07 03:34:09;;;;;;;24.40;12.88;;;;;;;;;;4972350;28;20198;-85
2023/06/07 03:36:35;;;;;;;25.40;13.23;;;;;;;;;;4992720;28;20493;-86
2023/06/07 03:39:02;;;;;;;19.38;12.20;;;;;;;;;;4988971;28;20069;-86
2023/06/07 03:41:28;;;;;;;23.58;12.20;;;;;;;;;;4987599;28;20082;-86
2023/06/07 03:43:54;;;;;;;19.80;11.45;;;;;;;;;;4984878;28;20050;-86
2023/06/07 03:46:20;;;;;;;18.98;11.30;;;;;;;;;;4987659;28;20050;-87
2023/06/07 03:48:46;;;;;;;20.60;11.05;;;;;;;;;;4986134;28;20575;-85
2023/06/07 03:51:12;;;;;;;23.38;11.43;;;;;;;;;;4986219;28;20064;-86
2023/06/07 03:53:39;;;;;;;26.45;11.65;;;;;;;;;;4988869;28;20118;-87
2023/06/07 03:56:05;;;;;;;22.83;11.55;;;;;;;;;;4990207;28;20054;-85
2023/06/07 03:58:32;;;;;;;24.75;10.30;;;;;;;;;;4987793;28;20077;-86
2023/06/07 04:00:58;;;;;;;21.73;10.38;;;;;;;;;;4988225;28;20089;-86
2023/06/07 04:03:24;;;;;;;23.20;10.18;;;;;;;;;;4986073;28;20397;-85
2023/06/07 04:05:54;;;;;;;24.52;10.10;;;;;;;;;;4971231;28;20046;-85
2023/06/07 04:08:20;;;;;;;25.13;9.95;;;;;;;;;;4987215;28;20057;-84
2023/06/07 04:10:46;;;;;;;20.98;9.75;;;;;;;;;;4970817;28;20051;-86
2023/06/07 04:13:12;;;;;;;21.75;9.55;;;;;;;;;;4971544;28;20127;-86
2023/06/07 04:15:38;;;;;;;20.38;9.32;;;;;;;;;;5004086;28;20068;-86
2023/06/07 04:18:05;;;;;;;23.40;9.20;;;;;;;;;;4986084;28;20400;-86
2023/06/07 04:20:31;;;;;;;22.45;9.57;;;;;;;;;;4986455;28;20050;-86
2023/06/07 04:22:57;;;;;;;26.83;9.30;;;;;;;;;;4986822;28;20610;-85
2023/06/07 04:25:27;;;;;;;24.08;8.43;;;;;;;;;;4952507;28;20081;-86
2023/06/07 04:27:59;;;;;;;21.83;7.93;;;;;;;;;;4989383;28;20097;-85
2023/06/07 04:30:34;;;;;;;21.17;7.97;;;;;;;;;;4987306;28;20073;-85
2023/06/07 04:33:01;;;;;;;21.27;8.25;;;;;;;;;;4983862;28;20046;-85
2023/06/07 04:35:31;;;;;;;25.42;9.00;;;;;;;;;;4984518;28;20672;-85
2023/06/07 04:38:01;;;;;;;19.17;7.35;;;;;;;;;;4974275;28;20039;-85
2023/06/07 04:40:27;;;;;;;22.02;7.47;;;;;;;;;;4973140;28;20050;-85
2023/06/07 04:42:55;;;;;;;18.10;7.80;;;;;;;;;;4968223;28;20043;-84
2023/06/07 04:45:31;;;;;;;23.92;8.15;;;;;;;;;;4966436;28;20053;-84
2023/06/07 04:47:58;;;;;;;21.20;7.90;;;;;;;;;;4988391;28;20190;-85
2023/06/07 04:50:24;;;;;;;22.75;7.60;;;;;;;;;;4983637;28;20051;-85
2023/06/07 04:52:50;;;;;;;19.42;7.68;;;;;;;;;;4975332;28;20047;-85
2023/06/07 04:55:17;;;;;;;20.73;7.47;;;;;;;;;;4974343;28;20049;-84
2023/06/07 04:57:45;;;;;;;22.38;8.05;;;;;;;;;;4991138;28;20049;-84
2023/06/07 05:00:14;;;;;;;20.38;7.82;;;;;;;;;;4972081;28;20043;-86
2023/06/07 05:02:43;;;;;;;19.10;6.72;;;;;;;;;;4990692;28;20098;-85
2023/06/07 05:05:09;;;;;;;24.67;8.18;;;;;;;;;;4990595;28;20362;-83
2023/06/07 05:07:36;;;;;;;20.98;7.53;;;;;;;;;;4991545;28;20054;-83
2023/06/07 05:10:02;;;;;;;17.40;6.93;;;;;;;;;;4987731;28;20065;-85
2023/06/07 05:12:29;;;;;;;19.60;7.13;;;;;;;;;;4992709;28;20058;-85
2023/06/07 05:14:55;;;;;;;20.42;6.50;;;;;;;;;;4984680;28;20050;-84
2023/06/07 05:17:21;;;;;;;18.95;6.78;;;;;;;;;;4977629;28;20096;-83
2023/06/07 05:19:47;;;;;;;21.30;6.72;;;;;;;;;;4996024;28;20039;-84
2023/06/07 05:22:14;;;;;;;18.40;6.40;;;;;;;;;;4992637;28;20046;-84
2023/06/07 05:24:40;;;;;;;21.45;6.93;;;;;;;;;;5001008;28;20057;-86
2023/06/07 05:27:06;;;;;;;17.00;6.40;;;;;;;;;;4976502;28;20073;-86
2023/06/07 05:29:33;;;;;;;17.08;6.25;;;;;;;;;;4989131;28;20043;-85
2023/06/07 05:31:59;;;;;;;18.40;5.75;;;;;;;;;;4989761;28;20050;-86
2023/06/07 05:34:25;;;;;;;20.33;5.80;;;;;;;;;;4993388;28;20046;-83
2023/06/07 05:36:51;;;;;;;19.05;5.65;;;;;;;;;;4992607;28;20065;-84
2023/06/07 05:39:17;;;;;;;17.83;4.80;;;;;;;;;;4983919;28;20053;-85
2023/06/07 05:41:43;;;;;;;16.25;5.05;;;;;;;;;;4993063;28;20049;-86
2023/06/07 05:44:09;;;;;;;18.60;5.60;;;;;;;;;;4988704;28;20051;-85
2023/06/07 05:46:35;;;;;;;17.88;5.63;;;;;;;;;;4988180;28;20047;-83
2023/06/07 05:49:01;;;;;;;14.50;4.85;;;;;;;;;;4974463;28;20070;-85
2023/06/07 05:51:27;;;;;;;21.08;5.53;;;;;;;;;;4992921;28;20073;-87
2023/06/07 05:53:53;;;;;;;16.10;4.28;;;;;;;;;;4992975;28;20050;-86
2023/06/07 05:56:21;;;;;;;17.15;4.70;;;;;;;;;;4990681;28;20053;-86
2023/06/07 05:58:49;;;;;;;20.15;4.75;;;;;;;;;;4992528;28;20097;-86
2023/06/07 06:01:15;;;;;;;21.85;4.30;;;;;;;;;;4991453;28;20054;-86
2023/06/07 06:03:42;;;;;;;15.65;4.60;;;;;;;;;;4969922;29;20059;-86
2023/06/07 06:06:15;;;;;;;17.65;4.68;;;;;;;;;;4985418;28;20062;-85
2023/06/07 06:08:41;;;;;;;18.77;4.60;;;;;;;;;;4994086;28;20047;-86
2023/06/07 06:11:10;;;;;;;16.52;4.00;;;;;;;;;;4990008;28;20039;-86
2023/06/07 06:13:36;;;;;;;18.10;4.40;;;;;;;;;;4989477;28;20039;-87
2023/06/07 06:16:02;;;;;;;15.80;4.07;;;;;;;;;;4993743;28;20055;-87
2023/06/07 06:18:28;;;;;;;18.45;4.10;;;;;;;;;;4992790;28;20043;-86
2023/06/07 06:20:54;;;;;;;20.05;4.63;;;;;;;;;;4993429;28;20051;-87
2023/06/07 06:23:20;;;;;;;16.23;3.97;;;;;;;;;;4992467;28;20029;-89
2023/06/07 06:25:47;;;;;;;14.93;3.50;;;;;;;;;;4981703;28;20045;-86
2023/06/07 06:28:13;;;;;;;15.07;3.83;;;;;;;;;;4981100;28;20047;-88
2023/06/07 06:30:39;;;;;;;20.17;4.15;;;;;;;;;;4987617;28;20051;-88
2023/06/07 06:33:05;;;;;;;14.50;3.78;;;;;;;;;;4984375;28;20047;-87
2023/06/07 06:35:35;;;;;;;18.65;3.85;;;;;;;;;;4985130;28;20054;-86
2023/06/07 06:38:01;;;;;;;18.60;4.28;;;;;;;;;;4975997;28;20042;-87
2023/06/07 06:40:28;;;;;;;14.85;3.85;;;;;;;;;;4992206;28;20047;-87
2023/06/07 06:42:58;;;;;;;12.90;3.80;;;;;;;;;;4991873;28;20047;-87
2023/06/07 06:45:25;;;;;;;13.40;3.92;;;;;;;;;;4998394;28;20050;-87
2023/06/07 06:47:51;;;;;;;15.68;4.18;;;;;;;;;;4986664;28;20046;-88
2023/06/07 06:50:17;;;;;;;13.07;4.38;;;;;;;;;;4981029;28;20489;-86
2023/06/07 06:52:43;;;;;;;19.80;4.18;;;;;;;;;;4989499;28;20560;-87
2023/06/07 06:55:09;;;;;;;15.75;3.78;;;;;;;;;;4975308;28;20050;-86
2023/06/07 06:57:36;;;;;;;13.25;4.00;;;;;;;;;;4984966;28;20666;-87
2023/06/07 07:00:11;;;;;;;11.15;3.97;;;;;;;;;;4983134;28;20046;-87
2023/06/07 07:02:37;;;;;;;13.32;3.78;;;;;;;;;;4984485;28;20078;-87
2023/06/07 07:05:05;;;;;;;17.52;4.20;;;;;;;;;;4999664;28;20108;-87
2023/06/07 07:07:31;;;;;;;14.93;3.53;;;;;;;;;;4990099;28;20385;-85
2023/06/07 07:09:58;;;;;;;17.02;4.30;;;;;;;;;;4966210;28;20511;-85
2023/06/07 07:12:24;;;;;;;10.25;3.40;;;;;;;;;;4990872;28;20102;-86
2023/06/07 07:14:51;;;;;;;13.95;4.07;;;;;;;;;;4997066;28;20105;-87
2023/06/07 07:17:17;;;;;;;14.60;3.83;;;;;;;;;;4977925;28;20171;-88
2023/06/07 07:19:43;;;;;;;12.57;3.92;;;;;;;;;;4989746;28;20106;-86
2023/06/07 07:22:09;;;;;;;13.80;4.18;;;;;;;;;;4988410;28;20125;-86
2023/06/07 07:24:35;;;;;;;14.73;4.32;;;;;;;;;;4972986;28;20047;-87
2023/06/07 07:27:01;;;;;;;13.65;3.92;;;;;;;;;;4990161;28;20109;-87
2023/06/07 07:29:27;;;;;;;16.40;3.80;;;;;;;;;;4978717;28;20054;-86
2023/06/07 07:31:53;;;;;;;12.75;4.05;;;;;;;;;;4991936;28;20029;-87
2023/06/07 07:34:20;;;;;;;14.57;4.57;;;;;;;;;;4996476;28;20026;-87
2023/06/07 07:36:46;;;;;;;10.18;4.00;;;;;;;;;;4983911;28;20042;-87
2023/06/07 07:39:12;;;;;;;13.73;4.82;;;;;;;;;;4982179;28;20057;-86
2023/06/07 07:41:42;;;;;;;13.10;4.13;;;;;;;;;;4995132;28;20066;-87
2023/06/07 07:44:08;;;;;;;13.60;4.07;;;;;;;;;;4974417;28;20042;-87
2023/06/07 07:46:35;;;;;;;13.18;4.07;;;;;;;;;;5006575;28;20038;-87
2023/06/07 07:49:01;;;;;;;12.15;4.18;;;;;;;;;;5008398;28;20144;-87
2023/06/07 07:51:27;;;;;;;15.13;4.55;;;;;;;;;;4992459;28;20039;-87
2023/06/07 07:53:53;;;;;;;12.43;4.10;;;;;;;;;;4986512;28;20039;-86
2023/06/07 07:56:23;;;;;;;14.45;4.47;;;;;;;;;;4969517;28;20046;-85
2023/06/07 07:58:49;;;;;;;13.07;4.30;;;;;;;;;;4984384;28;20141;-87
2023/06/07 08:01:16;;;;;;;12.18;4.20;;;;;;;;;;4959529;28;20130;-86
2023/06/07 08:03:42;;;;;;;14.85;4.60;;;;;;;;;;4978432;28;20122;-86
2023/06/07 08:06:09;;;;;;;13.35;4.38;;;;;;;;;;5001887;28;20130;-86
2023/06/07 08:08:35;;;;;;;12.25;4.47;;;;;;;;;;4991026;28;20050;-87
2023/06/07 08:11:01;;;;;;;13.10;4.40;;;;;;;;;;4987215;28;20046;-87
2023/06/07 08:13:28;;;;;;;15.23;4.50;;;;;;;;;;4989647;28;20050;-88
2023/06/07 08:15:54;;;;;;;12.13;3.95;;;;;;;;;;4992865;28;20077;-85
2023/06/07 08:18:20;;;;;;;14.00;4.20;;;;;;;;;;4989468;28;20033;-87
2023/06/07 08:20:46;;;;;;;13.18;3.90;;;;;;;;;;4991126;28;20106;-87
2023/06/07 08:23:12;;;;;;;12.15;4.03;;;;;;;;;;4990344;28;20047;-88
2023/06/07 08:25:39;;;;;;;13.68;4.63;;;;;;;;;;4973146;28;20057;-87
2023/06/07 08:28:05;;;;;;;12.02;4.45;;;;;;;;;;4993870;28;20039;-85
2023/06/07 08:30:31;;;;;;;11.52;4.25;;;;;;;;;;4989810;28;20039;-88
2023/06/07 08:32:57;;;;;;;13.85;4.32;;;;;;;;;;4991698;28;20046;-87
2023/06/07 08:35:23;;;;;;;12.40;3.65;;;;;;;;;;4982177;28;20099;-87
2023/06/07 08:37:50;;;;;;;9.90;3.70;;;;;;;;;;4987165;28;20042;-85
2023/06/07 08:40:19;;;;;;;15.35;4.18;;;;;;;;;;4982973;28;20103;-88
2023/06/07 08:42:46;;;;;;;11.60;3.70;;;;;;;;;;4983891;28;20043;-86
2023/06/07 08:45:12;;;;;;;12.63;4.10;;;;;;;;;;4981581;28;20054;-88
2023/06/07 08:47:40;;;;;;;13.15;3.47;;;;;;;;;;4981157;28;20093;-88
2023/06/07 08:50:09;;;;;;;16.92;3.72;;;;;;;;;;4981866;28;20051;-86
2023/06/07 08:52:39;;;;;;;10.57;3.63;;;;;;;;;;4983406;28;20054;-85
2023/06/07 08:55:07;;;;;;;12.73;3.40;;;;;;;;;;4978695;28;20077;-88
2023/06/07 08:57:33;;;;;;;15.45;3.75;;;;;;;;;;4965721;28;20050;-88
2023/06/07 09:00:06;;;;;;;12.25;3.42;;;;;;;;;;4986435;28;20043;-87
2023/06/07 09:02:33;;;;;;;12.57;3.50;;;;;;;;;;4990513;28;20042;-87
2023/06/07 09:05:05;;;;;;;13.02;3.75;;;;;;;;;;4992651;28;20053;-84
2023/06/07 09:07:32;;;;;;;11.77;3.22;;;;;;;;;;4987581;28;20035;-88
2023/06/07 09:09:58;;;;;;;14.68;3.90;;;;;;;;;;4955295;28;20038;-85
2023/06/07 09:12:25;;;;;;;14.80;4.15;;;;;;;;;;4987483;28;20047;-88
2023/06/07 09:14:51;;;;;;;12.10;3.55;;;;;;;;;;4961567;28;20066;-87
2023/06/07 09:17:17;;;;;;;11.18;3.53;;;;;;;;;;4990222;28;20039;-88
2023/06/07 09:19:43;;;;;;;11.82;3.30;;;;;;;;;;4988512;28;20054;-88
2023/06/07 09:22:14;;;;;;;13.60;4.05;;;;;;;;;;4990821;28;20043;-87
2023/06/07 09:24:41;;;;;;;12.38;4.13;;;;;;;;;;4977453;28;20054;-89
2023/06/07 09:27:08;;;;;;;14.13;3.95;;;;;;;;;;4970409;28;20054;-83
2023/06/07 09:29:43;;;;;;;12.48;3.92;;;;;;;;;;5000334;28;20066;-88
2023/06/07 09:32:16;;;;;;;11.50;3.97;;;;;;;;;;4988711;28;20039;-88
2023/06/07 09:34:42;;;;;;;12.02;3.90;;;;;;;;;;4971926;28;20118;-88
2023/06/07 09:37:08;;;;;;;10.38;4.20;;;;;;;;;;4959937;28;20557;-88
2023/06/07 09:39:37;;;;;;;13.48;3.78;;;;;;;;;;4979778;28;20055;-86
2023/06/07 09:42:13;;;;;;;12.20;3.97;;;;;;;;;;4973394;29;20028;-88
2023/06/07 09:44:39;;;;;;;16.45;3.97;;;;;;;;;;4975356;28;20058;-87
2023/06/07 09:47:07;;;;;;;12.30;3.88;;;;;;;;;;4997405;28;20050;-87
2023/06/07 09:49:35;;;;;;;12.85;3.60;;;;;;;;;;4961630;28;20050;-88
2023/06/07 09:52:02;;;;;;;13.38;3.80;;;;;;;;;;4979288;28;20051;-86
2023/06/07 09:54:38;;;;;;;16.60;4.18;;;;;;;;;;4995644;28;20043;-86
2023/06/07 09:57:09;;;;;;;14.82;4.53;;;;;;;;;;4957718;29;20043;-88
2023/06/07 09:59:36;;;;;;;11.57;4.30;;;;;;;;;;4942381;28;20114;-87
2023/06/07 10:02:02;;;;;;;11.57;3.97;;;;;;;;;;4972514;28;20050;-85
2023/06/07 10:04:31;;;;;;;11.55;4.00;;;;;;;;;;4964110;28;20089;-87
2023/06/07 10:07:00;;;;;;;12.60;3.50;;;;;;;;;;4987291;28;20088;-88
2023/06/07 10:09:27;;;;;;;12.77;3.72;;;;;;;;;;4987796;28;20047;-85
2023/06/07 10:11:57;;;;;;;10.65;3.60;;;;;;;;;;4991358;28;20034;-87
2023/06/07 10:14:32;;;;;;;9.88;3.20;;;;;;;;;;4989557;28;20042;-89
2023/06/07 10:17:05;;;;;;;14.25;4.25;;;;;;;;;;5001467;28;20061;-88
2023/06/07 10:19:37;;;;;;;12.27;3.70;;;;;;;;;;4991692;28;20106;-88
2023/06/07 10:22:04;;;;;;;12.25;3.85;;;;;;;;;;4992538;28;20047;-87
2023/06/07 10:24:35;;;;;;;13.10;4.00;;;;;;;;;;4957008;28;20055;-87
2023/06/07 10:27:08;;;;;;;14.23;4.32;;;;;;;;;;4974499;28;20043;-87
2023/06/07 10:29:39;;;;;;;10.05;3.80;;;;;;;;;;4982361;28;20118;-87
2023/06/07 10:32:12;;;;;;;13.90;3.65;;;;;;;;;;4983505;28;20116;-88
2023/06/07 10:34:39;;;;;;;11.52;3.70;;;;;;;;;;4987174;28;20077;-86
2023/06/07 10:37:09;;;;;;;11.00;3.92;;;;;;;;;;4989154;28;20047;-88
2023/06/07 10:39:38;;;;;;;15.52;4.07;;;;;;;;;;4988383;28;20050;-86
2023/06/07 10:42:05;;;;;;;14.45;3.88;;;;;;;;;;4991810;28;20039;-87
2023/06/07 10:44:31;;;;;;;13.00;4.35;;;;;;;;;;4974597;28;20142;-87
2023/06/07 10:47:16;;;;;;;13.10;4.15;;;;;;;;;;4991225;28;20046;-87
2023/06/07 10:49:42;;;;;;;13.38;3.95;;;;;;;;;;4990010;28;20102;-87
2023/06/07 10:52:11;;;;;;;14.07;4.38;;;;;;;;;;4991400;28;20047;-88
2023/06/07 10:54:41;;;;;;;15.38;4.43;;;;;;;;;;4990639;28;20047;-88
2023/06/07 10:57:07;;;;;;;9.93;4.32;;;;;;;;;;4989681;28;20051;-87
2023/06/07 10:59:34;;;;;;;18.15;5.13;;;;;;;;;;4988390;28;20102;-86
2023/06/07 11:02:23;;;;;;;11.63;4.05;;;;;;;;;;4990593;28;20178;-88
2023/06/07 11:04:54;;;;;;;10.88;4.03;;;;;;;;;;4971301;28;20099;-88
2023/06/07 11:07:33;;;;;;;13.57;4.55;;;;;;;;;;4992028;28;20015;-85
2023/06/07 11:10:05;;;;;;;10.52;4.10;;;;;;;;;;5002347;28;20150;-86
2023/06/07 11:12:44;;;;;;;12.70;3.90;;;;;;;;;;4990309;28;20078;-86
2023/06/07 11:15:20;;;;;;;13.95;5.10;;;;;;;;;;4988369;28;20094;-85
2023/06/07 11:17:54;;;;;;;11.02;3.88;;;;;;;;;;4989877;28;20058;-88
2023/06/07 11:20:38;;;;;;;13.35;4.10;;;;;;;;;;4988200;28;20054;-86
2023/06/07 11:23:24;;;;;;;14.95;4.95;;;;;;;;;;4989635;28;20181;-87
2023/06/07 11:25:53;;;;;;;13.60;4.15;;;;;;;;;;4990056;28;20074;-89
2023/06/07 11:28:22;;;;;;;16.27;4.22;;;;;;;;;;4989924;28;20142;-88
2023/06/07 11:30:49;;;;;;;12.70;3.95;;;;;;;;;;4974322;28;20051;-89
2023/06/07 11:33:15;;;;;;;11.75;3.90;;;;;;;;;;4991513;28;20078;-86
2023/06/07 11:35:42;;;;;;;13.27;4.13;;;;;;;;;;4990034;28;20046;-88
2023/06/07 11:38:08;;;;;;;13.63;4.22;;;;;;;;;;4987009;28;20082;-88
2023/06/07 11:40:35;;;;;;;11.95;4.22;;;;;;;;;;4978282;28;20073;-87
2023/06/07 11:43:02;;;;;;;12.38;4.60;;;;;;;;;;4991451;28;20027;-88
2023/06/07 11:45:28;;;;;;;12.07;4.05;;;;;;;;;;4991110;28;20043;-90
2023/06/07 11:48:01;;;;;;;13.52;4.70;;;;;;;;;;4991964;28;20047;-89
2023/06/07 11:50:27;;;;;;;12.73;4.80;;;;;;;;;;4997178;28;20129;-87
2023/06/07 11:52:53;;;;;;;11.88;4.00;;;;;;;;;;4998038;28;20115;-86
2023/06/07 11:55:20;;;;;;;11.38;4.20;;;;;;;;;;4993698;28;20042;-88
2023/06/07 11:57:51;;;;;;;11.38;4.38;;;;;;;;;;4992772;28;20050;-86
2023/06/07 12:00:21;;;;;;;13.73;4.50;;;;;;;;;;4996571;28;20085;-86
2023/06/07 12:02:48;;;;;;;10.20;3.97;;;;;;;;;;4993132;28;20070;-88
2023/06/07 12:05:15;;;;;;;11.88;4.03;;;;;;;;;;4992015;28;20058;-87
2023/06/07 12:07:42;;;;;;;11.65;4.65;;;;;;;;;;4989637;28;20054;-88
2023/06/07 12:10:08;;;;;;;10.65;3.70;;;;;;;;;;4990273;28;20055;-87
2023/06/07 12:12:34;;;;;;;13.93;4.45;;;;;;;;;;4988746;28;20077;-87
2023/06/07 12:15:01;;;;;;;12.00;4.35;;;;;;;;;;4988672;28;20126;-87
2023/06/07 12:17:37;;;;;;;13.57;4.18;;;;;;;;;;4989892;28;20075;-86
2023/06/07 12:20:08;;;;;;;11.82;4.38;;;;;;;;;;4974714;28;20055;-87
2023/06/07 12:22:34;;;;;;;13.27;4.05;;;;;;;;;;4975609;28;20082;-87
2023/06/07 12:25:27;;;;;;;14.55;4.38;;;;;;;;;;4988319;28;20043;-87
2023/06/07 12:27:53;;;;;;;12.85;4.50;;;;;;;;;;4946813;29;20051;-87
2023/06/07 12:30:20;;;;;;;15.23;5.05;;;;;;;;;;4958184;28;20046;-86
2023/06/07 12:32:47;;;;;;;11.93;4.38;;;;;;;;;;4987441;28;20058;-86
2023/06/07 12:35:14;;;;;;;12.65;4.22;;;;;;;;;;4969366;28;20409;-86
2023/06/07 12:37:40;;;;;;;15.82;4.95;;;;;;;;;;4982564;28;20039;-87
2023/06/07 12:40:08;;;;;;;11.93;4.15;;;;;;;;;;4981181;28;20051;-87
2023/06/07 12:42:40;;;;;;;14.18;4.30;;;;;;;;;;4984528;28;20131;-88
2023/06/07 12:45:07;;;;;;;13.98;4.38;;;;;;;;;;4960761;28;20093;-87
2023/06/07 12:47:33;;;;;;;13.63;5.03;;;;;;;;;;4980622;28;20130;-87
2023/06/07 12:49:59;;;;;;;12.35;4.70;;;;;;;;;;4983114;28;20044;-86
2023/06/07 12:52:25;;;;;;;13.90;4.88;;;;;;;;;;4982895;28;20050;-87
2023/06/07 12:54:53;;;;;;;14.45;4.63;;;;;;;;;;4983607;28;20043;-86
2023/06/07 12:57:19;;;;;;;14.07;4.65;;;;;;;;;;4967378;28;20050;-88
2023/06/07 12:59:45;;;;;;;11.63;4.60;;;;;;;;;;4965946;28;20064;-88
2023/06/07 13:02:11;;;;;;;14.57;5.00;;;;;;;;;;4987019;28;20070;-88
2023/06/07 13:04:37;;;;;;;12.07;4.78;;;;;;;;;;4968353;28;20051;-88
2023/06/07 13:07:03;;;;;;;12.10;4.60;;;;;;;;;;4986984;28;20472;-88
2023/06/07 13:09:30;;;;;;;13.52;4.72;;;;;;;;;;4979411;28;20047;-87
2023/06/07 13:11:57;;;;;;;12.18;4.90;;;;;;;;;;4984344;28;20062;-87
2023/06/07 13:14:23;;;;;;;12.93;4.80;;;;;;;;;;4987674;28;20043;-88
2023/06/07 13:16:49;;;;;;;14.02;4.95;;;;;;;;;;4969777;28;20043;-88
2023/06/07 13:19:15;;;;;;;11.30;4.35;;;;;;;;;;4985395;28;20049;-88
2023/06/07 13:21:41;;;;;;;13.45;4.72;;;;;;;;;;4970227;28;20054;-87
2023/06/07 13:24:07;;;;;;;12.77;4.30;;;;;;;;;;4991664;28;20046;-86
2023/06/07 13:26:34;;;;;;;13.95;5.10;;;;;;;;;;4978387;28;20073;-86
2023/06/07 13:29:00;;;;;;;12.77;5.20;;;;;;;;;;4992364;28;20046;-86
2023/06/07 13:31:26;;;;;;;14.80;5.00;;;;;;;;;;4978375;28;20054;-85
2023/06/07 13:33:53;;;;;;;13.55;4.97;;;;;;;;;;4989131;28;20106;-85
2023/06/07 13:36:19;;;;;;;12.20;4.63;;;;;;;;;;4956609;28;20094;-86
2023/06/07 13:38:45;;;;;;;13.52;4.90;;;;;;;;;;4989981;28;20039;-85
2023/06/07 13:41:11;;;;;;;13.32;5.03;;;;;;;;;;4988992;28;20055;-85
2023/06/07 13:43:38;;;;;;;13.80;5.00;;;;;;;;;;4974044;28;20054;-86
2023/06/07 13:46:04;;;;;;;13.88;4.65;;;;;;;;;;4973705;28;20050;-86
2023/06/07 13:48:31;;;;;;;11.82;4.70;;;;;;;;;;4986535;28;20046;-84
2023/06/07 13:50:57;;;;;;;12.15;5.07;;;;;;;;;;4983360;28;20047;-87
2023/06/07 13:53:23;;;;;;;11.63;4.53;;;;;;;;;;4960093;28;20054;-87
2023/06/07 13:55:49;;;;;;;13.82;4.60;;;;;;;;;;4991721;28;20070;-86
2023/06/07 13:58:16;;;;;;;10.95;4.50;;;;;;;;;;4989546;28;20047;-88
2023/06/07 14:00:42;;;;;;;13.20;4.72;;;;;;;;;;4972360;28;20401;-87
2023/06/07 14:03:09;;;;;;;11.40;4.13;;;;;;;;;;4972858;28;20042;-85
2023/06/07 14:05:35;;;;;;;12.35;4.70;;;;;;;;;;4972364;28;20099;-87
2023/06/07 14:08:01;;;;;;;12.70;4.57;;;;;;;;;;4972450;28;20049;-84
2023/06/07 14:10:28;;;;;;;13.82;4.38;;;;;;;;;;4994608;28;20489;-84
2023/06/07 14:12:57;;;;;;;10.70;4.57;;;;;;;;;;4972245;28;20054;-85
2023/06/07 14:15:23;;;;;;;11.13;4.20;;;;;;;;;;4977591;28;20045;-87
2023/06/07 14:17:49;;;;;;;15.27;5.05;;;;;;;;;;4977949;28;20065;-86
2023/06/07 14:20:16;;;;;;;13.93;4.57;;;;;;;;;;4960000;28;20082;-86
2023/06/07 14:22:42;;;;;;;13.50;4.40;;;;;;;;;;4973875;28;20043;-84
2023/06/07 14:25:08;;;;;;;14.07;4.60;;;;;;;;;;4990492;28;20389;-86
2023/06/07 14:27:34;;;;;;;15.05;4.10;;;;;;;;;;4976541;28;20066;-86
2023/06/07 14:30:00;;;;;;;14.93;4.30;;;;;;;;;;4987345;28;20106;-87